Ovit — 9HA2899 — position and weather

sailwx.info

Track history (hours):
 
Tides and Currents Weather Stations Pressure Air Temp Water Temp Dewpoint Dewpoint Depression Visibility Wind Speed Wind Dir Waves Ship Positions

Ovit

Last reported at 2017-Dec-18 05:00 UTC. Time now 2017-Dec-18 05:23 UTC.
Position N 36°07' W 005°22'.

Length 116 m; draft 7.5 m.

Type: Ship. MMSI: 256661000.

Date/timePositionNaut miles runAvg speedWind from/ knotsBaromVisibWave heightAir tempDewpointWater temp
2017-Dec-18 05:00N 36°07' W 005°22'0 0.0
2017-Dec-18 04:21N 36°07' W 005°22'0 0.1
2017-Dec-18 03:57N 36°07' W 005°22'0 0.0
2017-Dec-18 03:30N 36°07' W 005°22'0 0.0
2017-Dec-18 03:00N 36°07' W 005°22'0 0.0
2017-Dec-18 02:30N 36°07' W 005°22'0 0.0
2017-Dec-18 02:00N 36°07' W 005°22'0 0.0
2017-Dec-18 01:27N 36°07' W 005°22'0 0.1
2017-Dec-18 00:57N 36°07' W 005°22'0 0.1
2017-Dec-18 00:30N 36°07' W 005°22'0 0.4
2017-Dec-18 00:00N 36°07' W 005°22'2 2.1
2017-Dec-17 23:14N 36°09' W 005°22'1 0.1
2017-Dec-17 14:10N 36°08' W 005°22'0 0.1
2017-Dec-17 13:52N 36°08' W 005°22'0 0.1
2017-Dec-17 13:16N 36°08' W 005°22'0 0.0
2017-Dec-17 08:34N 36°08' W 005°22'0 0.1
2017-Dec-17 08:28N 36°08' W 005°22'0 0.1
2017-Dec-17 03:14N 36°08' W 005°22'0 0.2
2017-Dec-17 02:44N 36°08' W 005°22'0 0.1
2017-Dec-17 02:26N 36°08' W 005°22'0 0.0
2017-Dec-16 22:32N 36°08' W 005°22'0 0.4
2017-Dec-16 22:23N 36°08' W 005°22'0 0.3
2017-Dec-16 21:56N 36°08' W 005°22'1 0.3
2017-Dec-16 18:41N 36°09' W 005°23'0 0.0
2017-Dec-16 13:58N 36°09' W 005°23'1 0.2
2017-Dec-16 07:41N 36°08' W 005°22'0 0.0
2017-Dec-16 05:39N 36°08' W 005°22'0 0.1
2017-Dec-16 05:30N 36°08' W 005°22'0 0.2
2017-Dec-16 05:00N 36°08' W 005°22'3 0.1
2017-Dec-15 06:24N 36°08' W 005°26'3 0.1
2017-Dec-13 23:54N 36°09' W 005°22'0 0.6
2017-Dec-13 23:31N 36°09' W 005°22'1 2.2
2017-Dec-13 23:00N 36°07' W 005°22'0 0.7
2017-Dec-13 22:28N 36°07' W 005°22'0 0.1
2017-Dec-13 21:58N 36°07' W 005°22'0 0.0
2017-Dec-13 21:28N 36°07' W 005°22'0 0.1
2017-Dec-13 20:58N 36°07' W 005°22'0 0.0
2017-Dec-13 20:28N 36°07' W 005°22'1 0.0
2017-Dec-13 04:41N 36°07' W 005°22'0 0.0
2017-Dec-13 04:29N 36°07' W 005°22'0 0.0
2017-Dec-13 03:59N 36°07' W 005°22'0 0.1
2017-Dec-13 03:29N 36°07' W 005°22'0 0.0
2017-Dec-13 02:57N 36°07' W 005°22'0 0.0
2017-Dec-13 02:29N 36°07' W 005°22'0 0.1
2017-Dec-13 01:59N 36°07' W 005°22'0 0.0
2017-Dec-13 01:29N 36°07' W 005°22'0 0.0
2017-Dec-13 00:50N 36°07' W 005°22'0 0.0
2017-Dec-13 00:29N 36°07' W 005°22'0 0.0
2017-Dec-12 23:59N 36°07' W 005°22'0 0.1
2017-Dec-12 23:29N 36°07' W 005°22'0 0.1
2017-Dec-12 22:59N 36°07' W 005°22'0 0.1
2017-Dec-12 22:26N 36°07' W 005°22'0 0.0
2017-Dec-12 21:53N 36°07' W 005°22'0 0.0
2017-Dec-12 21:29N 36°07' W 005°22'0 0.1
2017-Dec-12 20:59N 36°07' W 005°22'0 0.1
2017-Dec-12 20:26N 36°07' W 005°22'3 0.4
2017-Dec-12 12:19N 36°06' W 005°19'2 0.2
2017-Dec-12 02:41N 36°07' W 005°21'0 0.1
2017-Dec-12 02:29N 36°07' W 005°21'0 0.0
2017-Dec-12 02:00N 36°07' W 005°21'0 0.2
2017-Dec-12 01:30N 36°07' W 005°21'1 2.9
2017-Dec-12 01:00N 36°07' W 005°23'2 3.0
2017-Dec-12 00:30N 36°09' W 005°23'1 2.2
2017-Dec-12 00:00N 36°08' W 005°22'0 0.7
2017-Dec-11 23:28N 36°08' W 005°22'0 0.0
2017-Dec-11 23:00N 36°08' W 005°22'0 0.0
2017-Dec-11 22:29N 36°08' W 005°22'0 0.0
2017-Dec-11 21:58N 36°08' W 005°22'0 0.1
2017-Dec-11 21:29N 36°08' W 005°22'0 0.0
2017-Dec-11 20:58N 36°08' W 005°22'0 0.0
2017-Dec-11 19:40N 36°08' W 005°22'  
Track history (hours):
 
Tides and Currents Weather Stations Pressure Air Temp Water Temp Dewpoint Dewpoint Depression Visibility Wind Speed Wind Dir Waves Ship Positions

Ovit

Last reported at 2017-Dec-18 05:00 UTC. Time now 2017-Dec-18 05:23 UTC.
Position N 36°07' W 005°22'.

Length 116 m; draft 7.5 m.

Type: Ship. MMSI: 256661000.

Date/timePositionNaut miles runAvg speedWind from/ knotsBaromVisibWave heightAir tempDewpointWater temp
2017-Dec-18 05:00N 36°07' W 005°22'0 0.0
2017-Dec-18 04:21N 36°07' W 005°22'0 0.1
2017-Dec-18 03:57N 36°07' W 005°22'0 0.0
2017-Dec-18 03:30N 36°07' W 005°22'0 0.0
2017-Dec-18 03:00N 36°07' W 005°22'0 0.0
2017-Dec-18 02:30N 36°07' W 005°22'0 0.0
2017-Dec-18 02:00N 36°07' W 005°22'0 0.0
2017-Dec-18 01:27N 36°07' W 005°22'0 0.1
2017-Dec-18 00:57N 36°07' W 005°22'0 0.1
2017-Dec-18 00:30N 36°07' W 005°22'0 0.4
2017-Dec-18 00:00N 36°07' W 005°22'2 2.1
2017-Dec-17 23:14N 36°09' W 005°22'1 0.1
2017-Dec-17 14:10N 36°08' W 005°22'0 0.1
2017-Dec-17 13:52N 36°08' W 005°22'0 0.1
2017-Dec-17 13:16N 36°08' W 005°22'0 0.0
2017-Dec-17 08:34N 36°08' W 005°22'0 0.1
2017-Dec-17 08:28N 36°08' W 005°22'0 0.1
2017-Dec-17 03:14N 36°08' W 005°22'0 0.2
2017-Dec-17 02:44N 36°08' W 005°22'0 0.1
2017-Dec-17 02:26N 36°08' W 005°22'0 0.0
2017-Dec-16 22:32N 36°08' W 005°22'0 0.4
2017-Dec-16 22:23N 36°08' W 005°22'0 0.3
2017-Dec-16 21:56N 36°08' W 005°22'1 0.3
2017-Dec-16 18:41N 36°09' W 005°23'0 0.0
2017-Dec-16 13:58N 36°09' W 005°23'1 0.2
2017-Dec-16 07:41N 36°08' W 005°22'0 0.0
2017-Dec-16 05:39N 36°08' W 005°22'0 0.1
2017-Dec-16 05:30N 36°08' W 005°22'0 0.2
2017-Dec-16 05:00N 36°08' W 005°22'3 0.1
2017-Dec-15 06:24N 36°08' W 005°26'3 0.1
2017-Dec-13 23:54N 36°09' W 005°22'0 0.6
2017-Dec-13 23:31N 36°09' W 005°22'1 2.2
2017-Dec-13 23:00N 36°07' W 005°22'0 0.7
2017-Dec-13 22:28N 36°07' W 005°22'0 0.1
2017-Dec-13 21:58N 36°07' W 005°22'0 0.0
2017-Dec-13 21:28N 36°07' W 005°22'0 0.1
2017-Dec-13 20:58N 36°07' W 005°22'0 0.0
2017-Dec-13 20:28N 36°07' W 005°22'1 0.0
2017-Dec-13 04:41N 36°07' W 005°22'0 0.0
2017-Dec-13 04:29N 36°07' W 005°22'0 0.0
2017-Dec-13 03:59N 36°07' W 005°22'0 0.1
2017-Dec-13 03:29N 36°07' W 005°22'0 0.0
2017-Dec-13 02:57N 36°07' W 005°22'0 0.0
2017-Dec-13 02:29N 36°07' W 005°22'0 0.1
2017-Dec-13 01:59N 36°07' W 005°22'0 0.0
2017-Dec-13 01:29N 36°07' W 005°22'0 0.0
2017-Dec-13 00:50N 36°07' W 005°22'0 0.0
2017-Dec-13 00:29N 36°07' W 005°22'0 0.0
2017-Dec-12 23:59N 36°07' W 005°22'0 0.1
2017-Dec-12 23:29N 36°07' W 005°22'0 0.1
2017-Dec-12 22:59N 36°07' W 005°22'0 0.1
2017-Dec-12 22:26N 36°07' W 005°22'0 0.0
2017-Dec-12 21:53N 36°07' W 005°22'0 0.0
2017-Dec-12 21:29N 36°07' W 005°22'0 0.1
2017-Dec-12 20:59N 36°07' W 005°22'0 0.1
2017-Dec-12 20:26N 36°07' W 005°22'3 0.4
2017-Dec-12 12:19N 36°06' W 005°19'2 0.2
2017-Dec-12 02:41N 36°07' W 005°21'0 0.1
2017-Dec-12 02:29N 36°07' W 005°21'0 0.0
2017-Dec-12 02:00N 36°07' W 005°21'0 0.2
2017-Dec-12 01:30N 36°07' W 005°21'1 2.9
2017-Dec-12 01:00N 36°07' W 005°23'2 3.0
2017-Dec-12 00:30N 36°09' W 005°23'1 2.2
2017-Dec-12 00:00N 36°08' W 005°22'0 0.7
2017-Dec-11 23:28N 36°08' W 005°22'0 0.0
2017-Dec-11 23:00N 36°08' W 005°22'0 0.0
2017-Dec-11 22:29N 36°08' W 005°22'0 0.0
2017-Dec-11 21:58N 36°08' W 005°22'0 0.1
2017-Dec-11 21:29N 36°08' W 005°22'0 0.0
2017-Dec-11 20:58N 36°08' W 005°22'0 0.0
2017-Dec-11 19:40N 36°08' W 005°22'  

Dump ship's entire track history